Vaciamadrid, Spain
Current Conditions -  °F | °C
As of 8:30 AM on Friday 19 Dec 2014 (Local Time) from LEMD Reporting Station
Light Fog Light Fog  
Wind Chill: 32°   Ceiling: Unl
Heat Index: 32°   Visibility: 5mi
Dew Point: 32°   Wind: 3mph
Humidity: 100%   Direction: 10°N
Pressure: 30.42"   Gusts: NA
Location:  40.33°N, 3.51°W
Report Text: LEMD 190730Z 01003KT 8000 R32R/1400D BCFG NSC M00/M00 Q1030 NOSIG
Loading
Personal Weather Stations






























Interactive Weather Map New forecast layout! Learn more

10-Day Weather Forecast

Advertisements
Track Severe Weather on mobile